sensor_id;sensor_type;location;lat;lon;timestamp;temperature;humidity
58865;DHT22;45702;52.982;6.658;2023-04-19T00:00:18;8.20;99.00
58865;DHT22;45702;52.982;6.658;2023-04-19T00:02:45;8.20;99.00
58865;DHT22;45702;52.982;6.658;2023-04-19T00:05:13;8.20;99.20
58865;DHT22;45702;52.982;6.658;2023-04-19T00:07:39;8.10;99.10
58865;DHT22;45702;52.982;6.658;2023-04-19T00:10:06;8.10;99.20
58865;DHT22;45702;52.982;6.658;2023-04-19T00:12:32;8.10;99.30
58865;DHT22;45702;52.982;6.658;2023-04-19T00:14:58;8.00;99.30
58865;DHT22;45702;52.982;6.658;2023-04-19T00:17:23;8.00;99.40
58865;DHT22;45702;52.982;6.658;2023-04-19T00:19:49;8.00;99.40
58865;DHT22;45702;52.982;6.658;2023-04-19T00:22:15;8.00;99.40
58865;DHT22;45702;52.982;6.658;2023-04-19T00:24:41;8.00;99.60
58865;DHT22;45702;52.982;6.658;2023-04-19T00:27:07;8.00;99.50
58865;DHT22;45702;52.982;6.658;2023-04-19T00:29:33;7.90;99.40
58865;DHT22;45702;52.982;6.658;2023-04-19T00:31:58;7.90;99.60
58865;DHT22;45702;52.982;6.658;2023-04-19T00:34:29;7.90;99.50
58865;DHT22;45702;52.982;6.658;2023-04-19T00:36:56;7.90;99.40
58865;DHT22;45702;52.982;6.658;2023-04-19T00:39:22;7.90;99.40
58865;DHT22;45702;52.982;6.658;2023-04-19T00:41:48;7.90;99.40
58865;DHT22;45702;52.982;6.658;2023-04-19T00:44:14;7.90;99.30
58865;DHT22;45702;52.982;6.658;2023-04-19T00:46:40;7.90;99.30
58865;DHT22;45702;52.982;6.658;2023-04-19T00:49:07;7.80;99.40
58865;DHT22;45702;52.982;6.658;2023-04-19T00:51:33;7.80;99.30
58865;DHT22;45702;52.982;6.658;2023-04-19T00:54:00;7.80;99.40
58865;DHT22;45702;52.982;6.658;2023-04-19T00:56:26;7.70;99.30
58865;DHT22;45702;52.982;6.658;2023-04-19T00:58:53;7.80;99.20
58865;DHT22;45702;52.982;6.658;2023-04-19T01:01:19;7.80;99.00
58865;DHT22;45702;52.982;6.658;2023-04-19T01:03:47;7.80;99.00
58865;DHT22;45702;52.982;6.658;2023-04-19T01:06:14;7.80;98.90
58865;DHT22;45702;52.982;6.658;2023-04-19T01:08:39;7.80;98.90
58865;DHT22;45702;52.982;6.658;2023-04-19T01:11:05;7.80;98.70
58865;DHT22;45702;52.982;6.658;2023-04-19T01:13:32;7.80;98.70
58865;DHT22;45702;52.982;6.658;2023-04-19T01:15:59;7.70;98.70
58865;DHT22;45702;52.982;6.658;2023-04-19T01:18:25;7.70;98.60
58865;DHT22;45702;52.982;6.658;2023-04-19T01:20:53;7.70;98.60
58865;DHT22;45702;52.982;6.658;2023-04-19T01:23:19;7.60;98.50
58865;DHT22;45702;52.982;6.658;2023-04-19T01:25:45;7.60;98.40
58865;DHT22;45702;52.982;6.658;2023-04-19T01:28:11;7.60;98.50
58865;DHT22;45702;52.982;6.658;2023-04-19T01:30:37;7.60;98.60
58865;DHT22;45702;52.982;6.658;2023-04-19T01:33:02;7.60;98.50
58865;DHT22;45702;52.982;6.658;2023-04-19T01:35:28;7.50;98.70
58865;DHT22;45702;52.982;6.658;2023-04-19T01:37:54;7.40;98.70
58865;DHT22;45702;52.982;6.658;2023-04-19T01:40:24;7.50;98.80
58865;DHT22;45702;52.982;6.658;2023-04-19T01:42:50;7.50;99.10
58865;DHT22;45702;52.982;6.658;2023-04-19T01:45:16;7.40;99.30
58865;DHT22;45702;52.982;6.658;2023-04-19T01:47:42;7.40;99.40
58865;DHT22;45702;52.982;6.658;2023-04-19T01:50:08;7.40;99.60
58865;DHT22;45702;52.982;6.658;2023-04-19T01:52:33;7.40;99.80
58865;DHT22;45702;52.982;6.658;2023-04-19T01:54:59;7.40;99.90
58865;DHT22;45702;52.982;6.658;2023-04-19T01:57:25;7.30;99.90
58865;DHT22;45702;52.982;6.658;2023-04-19T01:59:52;7.30;99.90
58865;DHT22;45702;52.982;6.658;2023-04-19T02:02:18;7.30;99.90
58865;DHT22;45702;52.982;6.658;2023-04-19T02:04:44;7.30;99.90
58865;DHT22;45702;52.982;6.658;2023-04-19T02:07:10;7.30;99.90
58865;DHT22;45702;52.982;6.658;2023-04-19T02:09:36;7.30;99.90
58865;DHT22;45702;52.982;6.658;2023-04-19T02:12:03;7.20;99.90
58865;DHT22;45702;52.982;6.658;2023-04-19T02:14:29;7.20;99.90
58865;DHT22;45702;52.982;6.658;2023-04-19T02:16:55;7.20;99.90
58865;DHT22;45702;52.982;6.658;2023-04-19T02:19:20;7.20;99.90
58865;DHT22;45702;52.982;6.658;2023-04-19T02:21:46;7.10;99.90
58865;DHT22;45702;52.982;6.658;2023-04-19T02:24:12;7.20;99.90
58865;DHT22;45702;52.982;6.658;2023-04-19T02:26:38;7.10;99.90
58865;DHT22;45702;52.982;6.658;2023-04-19T02:29:04;7.10;99.90
58865;DHT22;45702;52.982;6.658;2023-04-19T02:31:30;7.10;99.90
58865;DHT22;45702;52.982;6.658;2023-04-19T02:33:55;7.00;99.90
58865;DHT22;45702;52.982;6.658;2023-04-19T02:36:21;7.00;99.90
58865;DHT22;45702;52.982;6.658;2023-04-19T02:38:47;7.00;99.90
58865;DHT22;45702;52.982;6.658;2023-04-19T02:41:12;7.00;99.90
58865;DHT22;45702;52.982;6.658;2023-04-19T02:43:38;7.00;99.90
58865;DHT22;45702;52.982;6.658;2023-04-19T02:46:04;6.90;99.90
58865;DHT22;45702;52.982;6.658;2023-04-19T02:48:30;6.90;99.90
58865;DHT22;45702;52.982;6.658;2023-04-19T02:50:55;6.90;99.90
58865;DHT22;45702;52.982;6.658;2023-04-19T02:53:21;6.90;99.90
58865;DHT22;45702;52.982;6.658;2023-04-19T02:55:47;6.90;99.90
58865;DHT22;45702;52.982;6.658;2023-04-19T02:58:12;6.80;99.90
58865;DHT22;45702;52.982;6.658;2023-04-19T03:00:38;6.80;99.90
58865;DHT22;45702;52.982;6.658;2023-04-19T03:03:05;6.80;99.90
58865;DHT22;45702;52.982;6.658;2023-04-19T03:05:31;6.70;99.90
58865;DHT22;45702;52.982;6.658;2023-04-19T03:07:57;6.70;99.90
58865;DHT22;45702;52.982;6.658;2023-04-19T03:10:23;6.70;99.90
58865;DHT22;45702;52.982;6.658;2023-04-19T03:12:49;6.70;99.90
58865;DHT22;45702;52.982;6.658;2023-04-19T03:15:15;6.60;99.90
58865;DHT22;45702;52.982;6.658;2023-04-19T03:17:41;6.60;99.90
58865;DHT22;45702;52.982;6.658;2023-04-19T03:20:07;6.50;99.90
58865;DHT22;45702;52.982;6.658;2023-04-19T03:22:36;6.50;99.90
58865;DHT22;45702;52.982;6.658;2023-04-19T03:25:03;6.50;99.90
58865;DHT22;45702;52.982;6.658;2023-04-19T03:27:29;6.50;99.90
58865;DHT22;45702;52.982;6.658;2023-04-19T03:29:55;6.50;99.80
58865;DHT22;45702;52.982;6.658;2023-04-19T03:32:21;6.50;99.80
58865;DHT22;45702;52.982;6.658;2023-04-19T03:34:47;6.40;99.60
58865;DHT22;45702;52.982;6.658;2023-04-19T03:37:13;6.40;99.50
58865;DHT22;45702;52.982;6.658;2023-04-19T03:39:38;6.30;99.40
58865;DHT22;45702;52.982;6.658;2023-04-19T03:42:04;6.30;99.30
58865;DHT22;45702;52.982;6.658;2023-04-19T03:44:33;6.30;99.20
58865;DHT22;45702;52.982;6.658;2023-04-19T03:46:59;6.30;99.90
58865;DHT22;45702;52.982;6.658;2023-04-19T03:49:25;6.50;99.90
58865;DHT22;45702;52.982;6.658;2023-04-19T03:51:50;6.20;99.00
58865;DHT22;45702;52.982;6.658;2023-04-19T03:54:16;6.10;98.90
58865;DHT22;45702;52.982;6.658;2023-04-19T03:56:42;6.10;99.00
58865;DHT22;45702;52.982;6.658;2023-04-19T03:59:08;6.10;98.90
58865;DHT22;45702;52.982;6.658;2023-04-19T04:01:34;6.10;98.90
58865;DHT22;45702;52.982;6.658;2023-04-19T04:04:08;6.00;98.80
58865;DHT22;45702;52.982;6.658;2023-04-19T04:06:34;6.00;98.80
58865;DHT22;45702;52.982;6.658;2023-04-19T04:09:00;6.00;98.90
58865;DHT22;45702;52.982;6.658;2023-04-19T04:11:26;5.90;98.80
58865;DHT22;45702;52.982;6.658;2023-04-19T04:13:52;5.90;98.80
58865;DHT22;45702;52.982;6.658;2023-04-19T04:16:17;5.80;98.80
58865;DHT22;45702;52.982;6.658;2023-04-19T04:18:43;5.80;98.80
58865;DHT22;45702;52.982;6.658;2023-04-19T04:21:09;5.80;98.80
58865;DHT22;45702;52.982;6.658;2023-04-19T04:23:34;5.80;98.80
58865;DHT22;45702;52.982;6.658;2023-04-19T04:26:00;5.70;98.90
58865;DHT22;45702;52.982;6.658;2023-04-19T04:28:27;5.70;98.90
58865;DHT22;45702;52.982;6.658;2023-04-19T04:30:54;5.70;98.90
58865;DHT22;45702;52.982;6.658;2023-04-19T04:33:25;5.70;98.80
58865;DHT22;45702;52.982;6.658;2023-04-19T04:35:52;5.70;98.80
58865;DHT22;45702;52.982;6.658;2023-04-19T04:38:19;5.60;98.60
58865;DHT22;45702;52.982;6.658;2023-04-19T04:40:54;5.60;98.60
58865;DHT22;45702;52.982;6.658;2023-04-19T04:43:21;5.60;98.50
58865;DHT22;45702;52.982;6.658;2023-04-19T04:45:47;5.60;98.30
58865;DHT22;45702;52.982;6.658;2023-04-19T04:48:13;5.60;98.30
58865;DHT22;45702;52.982;6.658;2023-04-19T04:50:39;5.60;98.20
58865;DHT22;45702;52.982;6.658;2023-04-19T04:53:05;5.60;98.20
58865;DHT22;45702;52.982;6.658;2023-04-19T04:55:31;5.60;98.10
58865;DHT22;45702;52.982;6.658;2023-04-19T04:57:57;5.60;98.00
58865;DHT22;45702;52.982;6.658;2023-04-19T05:00:24;5.60;98.00
58865;DHT22;45702;52.982;6.658;2023-04-19T05:02:49;5.50;98.00
58865;DHT22;45702;52.982;6.658;2023-04-19T05:05:15;5.60;98.00
58865;DHT22;45702;52.982;6.658;2023-04-19T05:07:41;5.60;98.00
58865;DHT22;45702;52.982;6.658;2023-04-19T05:10:07;5.60;97.90
58865;DHT22;45702;52.982;6.658;2023-04-19T05:12:33;5.60;97.80
58865;DHT22;45702;52.982;6.658;2023-04-19T05:14:59;5.60;97.70
58865;DHT22;45702;52.982;6.658;2023-04-19T05:17:24;5.60;97.60
58865;DHT22;45702;52.982;6.658;2023-04-19T05:19:50;5.70;97.60
58865;DHT22;45702;52.982;6.658;2023-04-19T05:22:16;5.70;97.50
58865;DHT22;45702;52.982;6.658;2023-04-19T05:24:42;5.70;97.40
58865;DHT22;45702;52.982;6.658;2023-04-19T05:27:07;5.80;97.40
58865;DHT22;45702;52.982;6.658;2023-04-19T05:29:34;5.80;97.40
58865;DHT22;45702;52.982;6.658;2023-04-19T05:32:00;5.80;97.30
58865;DHT22;45702;52.982;6.658;2023-04-19T05:34:25;5.80;97.20
58865;DHT22;45702;52.982;6.658;2023-04-19T05:36:51;5.90;97.00
58865;DHT22;45702;52.982;6.658;2023-04-19T05:39:17;6.00;96.90
58865;DHT22;45702;52.982;6.658;2023-04-19T05:41:42;6.00;96.70
58865;DHT22;45702;52.982;6.658;2023-04-19T05:44:08;6.10;96.50
58865;DHT22;45702;52.982;6.658;2023-04-19T05:46:34;6.10;96.30
58865;DHT22;45702;52.982;6.658;2023-04-19T05:49:01;6.20;96.00
58865;DHT22;45702;52.982;6.658;2023-04-19T05:51:27;6.30;95.70
58865;DHT22;45702;52.982;6.658;2023-04-19T05:53:52;6.30;95.40
58865;DHT22;45702;52.982;6.658;2023-04-19T05:56:18;6.40;95.20
58865;DHT22;45702;52.982;6.658;2023-04-19T05:58:44;6.50;94.90
58865;DHT22;45702;52.982;6.658;2023-04-19T06:01:10;6.50;94.60
58865;DHT22;45702;52.982;6.658;2023-04-19T06:03:36;6.60;94.40
58865;DHT22;45702;52.982;6.658;2023-04-19T06:06:01;6.60;93.80
58865;DHT22;45702;52.982;6.658;2023-04-19T06:08:27;6.70;93.50
58865;DHT22;45702;52.982;6.658;2023-04-19T06:10:53;6.80;93.30
58865;DHT22;45702;52.982;6.658;2023-04-19T06:13:20;6.80;93.00
58865;DHT22;45702;52.982;6.658;2023-04-19T06:15:46;6.90;93.30
58865;DHT22;45702;52.982;6.658;2023-04-19T06:18:12;7.00;92.70
58865;DHT22;45702;52.982;6.658;2023-04-19T06:20:38;7.00;92.60
58865;DHT22;45702;52.982;6.658;2023-04-19T06:23:05;7.10;92.30
58865;DHT22;45702;52.982;6.658;2023-04-19T06:25:31;7.10;92.10
58865;DHT22;45702;52.982;6.658;2023-04-19T06:27:57;7.20;92.00
58865;DHT22;45702;52.982;6.658;2023-04-19T06:30:23;7.20;91.90
58865;DHT22;45702;52.982;6.658;2023-04-19T06:32:48;7.30;91.60
58865;DHT22;45702;52.982;6.658;2023-04-19T06:35:14;7.30;91.70
58865;DHT22;45702;52.982;6.658;2023-04-19T06:37:40;7.40;91.40
58865;DHT22;45702;52.982;6.658;2023-04-19T06:40:06;7.50;91.10
58865;DHT22;45702;52.982;6.658;2023-04-19T06:42:36;7.50;91.00
58865;DHT22;45702;52.982;6.658;2023-04-19T06:45:02;7.60;90.70
58865;DHT22;45702;52.982;6.658;2023-04-19T06:47:28;7.60;90.20
58865;DHT22;45702;52.982;6.658;2023-04-19T06:49:54;7.70;90.00
58865;DHT22;45702;52.982;6.658;2023-04-19T06:52:21;7.70;89.70
58865;DHT22;45702;52.982;6.658;2023-04-19T06:54:50;7.80;88.10
58865;DHT22;45702;52.982;6.658;2023-04-19T06:57:17;7.90;87.60
58865;DHT22;45702;52.982;6.658;2023-04-19T06:59:43;7.90;86.60
58865;DHT22;45702;52.982;6.658;2023-04-19T07:02:09;7.90;87.40
58865;DHT22;45702;52.982;6.658;2023-04-19T07:04:35;8.10;86.90
58865;DHT22;45702;52.982;6.658;2023-04-19T07:07:01;8.10;86.80
58865;DHT22;45702;52.982;6.658;2023-04-19T07:09:27;8.20;86.30
58865;DHT22;45702;52.982;6.658;2023-04-19T07:11:53;8.30;85.60
58865;DHT22;45702;52.982;6.658;2023-04-19T07:14:19;8.40;85.10
58865;DHT22;45702;52.982;6.658;2023-04-19T07:16:45;8.40;84.60
58865;DHT22;45702;52.982;6.658;2023-04-19T07:19:12;8.50;83.90
58865;DHT22;45702;52.982;6.658;2023-04-19T07:21:38;8.60;83.90
58865;DHT22;45702;52.982;6.658;2023-04-19T07:24:07;8.70;83.20
58865;DHT22;45702;52.982;6.658;2023-04-19T07:26:33;8.70;82.60
58865;DHT22;45702;52.982;6.658;2023-04-19T07:28:59;8.80;82.70
58865;DHT22;45702;52.982;6.658;2023-04-19T07:31:25;8.90;82.80
58865;DHT22;45702;52.982;6.658;2023-04-19T07:33:51;9.00;82.10
58865;DHT22;45702;52.982;6.658;2023-04-19T07:36:17;9.20;81.80
58865;DHT22;45702;52.982;6.658;2023-04-19T07:38:42;9.20;80.90
58865;DHT22;45702;52.982;6.658;2023-04-19T07:41:09;9.30;79.90
58865;DHT22;45702;52.982;6.658;2023-04-19T07:43:35;9.40;79.50
58865;DHT22;45702;52.982;6.658;2023-04-19T07:46:01;9.50;79.20
58865;DHT22;45702;52.982;6.658;2023-04-19T07:48:27;9.60;78.50
58865;DHT22;45702;52.982;6.658;2023-04-19T07:50:53;9.70;79.20
58865;DHT22;45702;52.982;6.658;2023-04-19T07:53:18;9.90;78.40
58865;DHT22;45702;52.982;6.658;2023-04-19T07:55:44;10.00;77.20
58865;DHT22;45702;52.982;6.658;2023-04-19T07:58:11;10.00;76.30
58865;DHT22;45702;52.982;6.658;2023-04-19T08:00:36;10.10;75.70
58865;DHT22;45702;52.982;6.658;2023-04-19T08:03:05;10.20;75.20
58865;DHT22;45702;52.982;6.658;2023-04-19T08:05:31;10.30;74.80
58865;DHT22;45702;52.982;6.658;2023-04-19T08:07:57;10.30;75.00
58865;DHT22;45702;52.982;6.658;2023-04-19T08:10:22;10.40;74.60
58865;DHT22;45702;52.982;6.658;2023-04-19T08:12:48;10.60;74.50
58865;DHT22;45702;52.982;6.658;2023-04-19T08:15:17;10.60;73.50
58865;DHT22;45702;52.982;6.658;2023-04-19T08:17:44;10.70;72.40
58865;DHT22;45702;52.982;6.658;2023-04-19T08:20:10;10.70;72.10
58865;DHT22;45702;52.982;6.658;2023-04-19T08:22:37;10.90;71.20
58865;DHT22;45702;52.982;6.658;2023-04-19T08:25:04;10.90;71.10
58865;DHT22;45702;52.982;6.658;2023-04-19T08:27:31;11.10;70.70
58865;DHT22;45702;52.982;6.658;2023-04-19T08:29:56;11.30;68.80
58865;DHT22;45702;52.982;6.658;2023-04-19T08:32:22;11.30;69.00
58865;DHT22;45702;52.982;6.658;2023-04-19T08:34:48;11.50;68.70
58865;DHT22;45702;52.982;6.658;2023-04-19T08:37:14;11.60;68.50
58865;DHT22;45702;52.982;6.658;2023-04-19T08:39:40;11.70;67.20
58865;DHT22;45702;52.982;6.658;2023-04-19T08:42:07;11.80;67.20
58865;DHT22;45702;52.982;6.658;2023-04-19T08:44:34;12.00;67.00
58865;DHT22;45702;52.982;6.658;2023-04-19T08:47:00;12.10;65.20
58865;DHT22;45702;52.982;6.658;2023-04-19T08:49:27;12.10;63.70
58865;DHT22;45702;52.982;6.658;2023-04-19T08:51:54;12.10;63.20
58865;DHT22;45702;52.982;6.658;2023-04-19T08:54:22;12.30;60.90
58865;DHT22;45702;52.982;6.658;2023-04-19T08:56:48;12.20;61.50
58865;DHT22;45702;52.982;6.658;2023-04-19T08:59:14;12.40;60.30
58865;DHT22;45702;52.982;6.658;2023-04-19T09:01:40;12.50;61.30
58865;DHT22;45702;52.982;6.658;2023-04-19T09:04:06;12.60;60.50
58865;DHT22;45702;52.982;6.658;2023-04-19T09:06:39;12.70;59.70
58865;DHT22;45702;52.982;6.658;2023-04-19T09:09:16;12.70;58.20
58865;DHT22;45702;52.982;6.658;2023-04-19T09:11:42;12.80;58.10
58865;DHT22;45702;52.982;6.658;2023-04-19T09:14:10;12.80;57.70
58865;DHT22;45702;52.982;6.658;2023-04-19T09:16:36;12.90;57.10
58865;DHT22;45702;52.982;6.658;2023-04-19T09:19:05;13.00;56.90
58865;DHT22;45702;52.982;6.658;2023-04-19T09:21:31;13.10;57.40
58865;DHT22;45702;52.982;6.658;2023-04-19T09:23:58;13.20;56.60
58865;DHT22;45702;52.982;6.658;2023-04-19T09:26:25;13.30;55.70
58865;DHT22;45702;52.982;6.658;2023-04-19T09:28:57;13.30;56.20
58865;DHT22;45702;52.982;6.658;2023-04-19T09:31:24;13.40;56.30
58865;DHT22;45702;52.982;6.658;2023-04-19T09:33:53;13.50;56.80
58865;DHT22;45702;52.982;6.658;2023-04-19T09:36:27;13.60;54.90
58865;DHT22;45702;52.982;6.658;2023-04-19T09:38:53;13.70;54.90
58865;DHT22;45702;52.982;6.658;2023-04-19T09:41:19;13.80;54.80
58865;DHT22;45702;52.982;6.658;2023-04-19T09:43:45;13.80;54.70
58865;DHT22;45702;52.982;6.658;2023-04-19T09:46:34;13.90;53.70
58865;DHT22;45702;52.982;6.658;2023-04-19T09:51:40;14.00;53.70
58865;DHT22;45702;52.982;6.658;2023-04-19T09:54:08;14.10;53.50
58865;DHT22;45702;52.982;6.658;2023-04-19T09:56:35;14.20;52.70
58865;DHT22;45702;52.982;6.658;2023-04-19T09:59:05;14.30;51.40
58865;DHT22;45702;52.982;6.658;2023-04-19T10:01:38;14.40;50.90
58865;DHT22;45702;52.982;6.658;2023-04-19T10:04:05;14.50;50.10
58865;DHT22;45702;52.982;6.658;2023-04-19T10:06:32;14.50;50.10
58865;DHT22;45702;52.982;6.658;2023-04-19T10:09:01;14.60;48.60
58865;DHT22;45702;52.982;6.658;2023-04-19T10:11:32;14.60;48.40
58865;DHT22;45702;52.982;6.658;2023-04-19T10:14:08;14.60;47.80
58865;DHT22;45702;52.982;6.658;2023-04-19T10:16:35;14.60;47.50
58865;DHT22;45702;52.982;6.658;2023-04-19T10:19:05;14.60;48.20
58865;DHT22;45702;52.982;6.658;2023-04-19T10:21:31;14.60;47.50
58865;DHT22;45702;52.982;6.658;2023-04-19T10:23:58;14.60;47.70
58865;DHT22;45702;52.982;6.658;2023-04-19T10:26:24;14.60;47.30
58865;DHT22;45702;52.982;6.658;2023-04-19T10:28:50;14.70;47.80
58865;DHT22;45702;52.982;6.658;2023-04-19T10:31:19;14.70;47.80
58865;DHT22;45702;52.982;6.658;2023-04-19T10:33:49;14.80;47.30
58865;DHT22;45702;52.982;6.658;2023-04-19T10:36:16;14.90;47.10
58865;DHT22;45702;52.982;6.658;2023-04-19T10:38:49;14.90;47.00
58865;DHT22;45702;52.982;6.658;2023-04-19T10:41:20;15.00;46.90
58865;DHT22;45702;52.982;6.658;2023-04-19T10:44:07;15.00;46.20
58865;DHT22;45702;52.982;6.658;2023-04-19T10:49:01;15.10;47.60
58865;DHT22;45702;52.982;6.658;2023-04-19T10:51:35;15.20;48.10
58865;DHT22;45702;52.982;6.658;2023-04-19T10:54:31;15.20;48.10
58865;DHT22;45702;52.982;6.658;2023-04-19T10:57:01;15.30;47.00
58865;DHT22;45702;52.982;6.658;2023-04-19T10:59:34;15.30;46.10
58865;DHT22;45702;52.982;6.658;2023-04-19T11:07:18;15.60;47.00
58865;DHT22;45702;52.982;6.658;2023-04-19T11:09:48;15.70;46.50
58865;DHT22;45702;52.982;6.658;2023-04-19T11:12:17;15.70;46.50
58865;DHT22;45702;52.982;6.658;2023-04-19T11:14:56;15.80;46.40
58865;DHT22;45702;52.982;6.658;2023-04-19T11:17:31;15.90;46.00
58865;DHT22;45702;52.982;6.658;2023-04-19T11:20:01;15.90;45.60
58865;DHT22;45702;52.982;6.658;2023-04-19T11:22:33;15.90;46.30
58865;DHT22;45702;52.982;6.658;2023-04-19T11:25:17;15.90;46.90
58865;DHT22;45702;52.982;6.658;2023-04-19T11:27:51;15.90;46.40
58865;DHT22;45702;52.982;6.658;2023-04-19T11:30:28;15.90;46.70
58865;DHT22;45702;52.982;6.658;2023-04-19T11:32:57;15.90;47.50
58865;DHT22;45702;52.982;6.658;2023-04-19T11:35:25;16.10;47.80
58865;DHT22;45702;52.982;6.658;2023-04-19T11:37:51;16.20;47.40
58865;DHT22;45702;52.982;6.658;2023-04-19T11:40:19;16.20;45.70
58865;DHT22;45702;52.982;6.658;2023-04-19T11:42:47;16.30;47.60
58865;DHT22;45702;52.982;6.658;2023-04-19T11:45:31;16.30;46.70
58865;DHT22;45702;52.982;6.658;2023-04-19T11:47:57;16.30;46.30
58865;DHT22;45702;52.982;6.658;2023-04-19T11:50:30;16.30;47.10
58865;DHT22;45702;52.982;6.658;2023-04-19T11:52:57;16.40;47.00
58865;DHT22;45702;52.982;6.658;2023-04-19T11:55:23;16.50;47.00
58865;DHT22;45702;52.982;6.658;2023-04-19T11:57:48;16.50;47.50
58865;DHT22;45702;52.982;6.658;2023-04-19T12:00:15;16.60;48.60
58865;DHT22;45702;52.982;6.658;2023-04-19T12:02:45;16.70;48.50
58865;DHT22;45702;52.982;6.658;2023-04-19T12:05:12;16.80;48.10
58865;DHT22;45702;52.982;6.658;2023-04-19T12:10:22;17.10;45.80
58865;DHT22;45702;52.982;6.658;2023-04-19T12:12:48;17.20;46.10
58865;DHT22;45702;52.982;6.658;2023-04-19T12:15:14;17.30;46.20
58865;DHT22;45702;52.982;6.658;2023-04-19T12:18:01;17.40;46.70
58865;DHT22;45702;52.982;6.658;2023-04-19T12:20:34;17.40;46.90
58865;DHT22;45702;52.982;6.658;2023-04-19T12:23:00;17.50;46.20
58865;DHT22;45702;52.982;6.658;2023-04-19T12:25:30;17.60;44.90
58865;DHT22;45702;52.982;6.658;2023-04-19T12:27:57;17.50;45.20
58865;DHT22;45702;52.982;6.658;2023-04-19T12:30:23;17.50;46.50
58865;DHT22;45702;52.982;6.658;2023-04-19T12:32:48;17.60;45.60
58865;DHT22;45702;52.982;6.658;2023-04-19T12:35:16;17.50;44.60
58865;DHT22;45702;52.982;6.658;2023-04-19T12:37:42;17.50;44.50
58865;DHT22;45702;52.982;6.658;2023-04-19T12:40:08;17.40;44.80
58865;DHT22;45702;52.982;6.658;2023-04-19T12:42:34;17.40;44.60
58865;DHT22;45702;52.982;6.658;2023-04-19T12:44:59;17.50;45.10
58865;DHT22;45702;52.982;6.658;2023-04-19T12:47:27;17.60;45.20
58865;DHT22;45702;52.982;6.658;2023-04-19T12:49:56;17.80;46.20
58865;DHT22;45702;52.982;6.658;2023-04-19T12:52:23;17.90;47.30
58865;DHT22;45702;52.982;6.658;2023-04-19T12:54:48;17.80;46.70
58865;DHT22;45702;52.982;6.658;2023-04-19T12:57:14;17.80;46.40
58865;DHT22;45702;52.982;6.658;2023-04-19T12:59:40;17.70;47.10
58865;DHT22;45702;52.982;6.658;2023-04-19T13:02:06;17.60;46.50
58865;DHT22;45702;52.982;6.658;2023-04-19T13:04:32;17.50;46.70
58865;DHT22;45702;52.982;6.658;2023-04-19T13:06:57;17.60;47.20
58865;DHT22;45702;52.982;6.658;2023-04-19T13:09:23;17.60;47.50
58865;DHT22;45702;52.982;6.658;2023-04-19T13:11:49;17.50;47.40
58865;DHT22;45702;52.982;6.658;2023-04-19T13:14:15;17.50;47.30
58865;DHT22;45702;52.982;6.658;2023-04-19T13:16:41;17.50;48.20
58865;DHT22;45702;52.982;6.658;2023-04-19T13:19:06;17.40;48.60
58865;DHT22;45702;52.982;6.658;2023-04-19T13:21:32;17.40;47.70
58865;DHT22;45702;52.982;6.658;2023-04-19T13:23:58;17.40;47.50
58865;DHT22;45702;52.982;6.658;2023-04-19T13:26:24;17.40;47.90
58865;DHT22;45702;52.982;6.658;2023-04-19T13:28:50;17.60;47.90
58865;DHT22;45702;52.982;6.658;2023-04-19T13:31:16;17.70;47.70
58865;DHT22;45702;52.982;6.658;2023-04-19T13:33:41;17.90;48.10
58865;DHT22;45702;52.982;6.658;2023-04-19T13:36:07;18.00;47.50
58865;DHT22;45702;52.982;6.658;2023-04-19T13:38:33;17.90;48.00
58865;DHT22;45702;52.982;6.658;2023-04-19T13:40:59;17.80;47.60
58865;DHT22;45702;52.982;6.658;2023-04-19T13:43:25;17.60;46.90
58865;DHT22;45702;52.982;6.658;2023-04-19T13:45:51;17.50;47.30
58865;DHT22;45702;52.982;6.658;2023-04-19T13:48:16;17.60;47.60
58865;DHT22;45702;52.982;6.658;2023-04-19T13:50:42;17.60;47.20
58865;DHT22;45702;52.982;6.658;2023-04-19T13:53:08;17.70;47.40
58865;DHT22;45702;52.982;6.658;2023-04-19T13:55:33;17.80;47.40
58865;DHT22;45702;52.982;6.658;2023-04-19T13:57:59;17.90;46.20
58865;DHT22;45702;52.982;6.658;2023-04-19T14:00:25;18.00;45.90
58865;DHT22;45702;52.982;6.658;2023-04-19T14:02:51;18.10;45.90
58865;DHT22;45702;52.982;6.658;2023-04-19T14:05:17;18.00;45.80
58865;DHT22;45702;52.982;6.658;2023-04-19T14:07:42;18.00;45.60
58865;DHT22;45702;52.982;6.658;2023-04-19T14:10:08;17.90;45.50
58865;DHT22;45702;52.982;6.658;2023-04-19T14:12:34;18.00;45.80
58865;DHT22;45702;52.982;6.658;2023-04-19T14:15:00;18.40;45.50
58865;DHT22;45702;52.982;6.658;2023-04-19T14:17:26;18.80;44.50
58865;DHT22;45702;52.982;6.658;2023-04-19T14:19:51;18.90;43.90
58865;DHT22;45702;52.982;6.658;2023-04-19T14:22:17;18.90;43.70
58865;DHT22;45702;52.982;6.658;2023-04-19T14:24:43;19.00;42.80
58865;DHT22;45702;52.982;6.658;2023-04-19T14:27:10;18.90;42.40
58865;DHT22;45702;52.982;6.658;2023-04-19T14:29:36;18.90;42.40
58865;DHT22;45702;52.982;6.658;2023-04-19T14:32:01;18.80;43.00
58865;DHT22;45702;52.982;6.658;2023-04-19T14:34:27;18.90;43.10
58865;DHT22;45702;52.982;6.658;2023-04-19T14:36:53;18.90;42.90
58865;DHT22;45702;52.982;6.658;2023-04-19T14:39:18;18.90;42.50
58865;DHT22;45702;52.982;6.658;2023-04-19T14:41:44;18.70;42.60
58865;DHT22;45702;52.982;6.658;2023-04-19T14:44:10;18.30;42.10
58865;DHT22;45702;52.982;6.658;2023-04-19T14:46:35;18.10;42.70
58865;DHT22;45702;52.982;6.658;2023-04-19T14:49:01;18.10;42.70
58865;DHT22;45702;52.982;6.658;2023-04-19T14:51:31;18.00;42.90
58865;DHT22;45702;52.982;6.658;2023-04-19T14:53:57;17.90;43.30
58865;DHT22;45702;52.982;6.658;2023-04-19T14:56:23;18.00;43.70
58865;DHT22;45702;52.982;6.658;2023-04-19T14:58:49;18.10;44.40
58865;DHT22;45702;52.982;6.658;2023-04-19T15:01:16;18.10;42.60
58865;DHT22;45702;52.982;6.658;2023-04-19T15:03:42;18.10;42.70
58865;DHT22;45702;52.982;6.658;2023-04-19T15:06:07;18.10;42.00
58865;DHT22;45702;52.982;6.658;2023-04-19T15:08:33;18.00;42.30
58865;DHT22;45702;52.982;6.658;2023-04-19T15:10:59;17.80;42.40
58865;DHT22;45702;52.982;6.658;2023-04-19T15:13:24;17.90;42.20
58865;DHT22;45702;52.982;6.658;2023-04-19T15:15:51;18.00;41.90
58865;DHT22;45702;52.982;6.658;2023-04-19T15:18:17;18.30;41.70
58865;DHT22;45702;52.982;6.658;2023-04-19T15:20:42;18.40;40.80
58865;DHT22;45702;52.982;6.658;2023-04-19T15:23:08;18.50;41.50
58865;DHT22;45702;52.982;6.658;2023-04-19T15:25:34;18.80;39.70
58865;DHT22;45702;52.982;6.658;2023-04-19T15:27:59;18.70;40.10
58865;DHT22;45702;52.982;6.658;2023-04-19T15:30:26;19.00;40.50
58865;DHT22;45702;52.982;6.658;2023-04-19T15:32:51;19.50;40.80
58865;DHT22;45702;52.982;6.658;2023-04-19T15:35:17;20.00;40.70
58865;DHT22;45702;52.982;6.658;2023-04-19T15:37:45;20.10;39.70
58865;DHT22;45702;52.982;6.658;2023-04-19T15:40:11;20.40;39.50
58865;DHT22;45702;52.982;6.658;2023-04-19T15:42:40;21.20;39.20
58865;DHT22;45702;52.982;6.658;2023-04-19T15:45:12;22.20;38.00
58865;DHT22;45702;52.982;6.658;2023-04-19T15:47:37;22.60;36.40